Terminal Aerodrome Forecast
Issued by NWS

Home | Current Version | Previous Version | Text Only | Print | Product List | Glossary On
Versions: 1 2 3 4 5 6 7 8 9 10 11 12 13 14 15 16 17 18
000
FTUS43 KDLH 201723
TAFHIB
TAF
KHIB 201723Z 2018/2118 18009KT P6SM BKN110 WS020/23040KT
     FM202100 21008KT P6SM BKN140
     FM210000 22007KT P6SM BKN120 WS020/26040KT
     FM210400 27010G18KT P6SM SCT015 BKN025
     FM210600 29016G27KT P6SM VCSH BKN025
     FM210900 30016G27KT 4SM -SHSN BKN015 OVC030
     FM211500 32014G25KT P6SM BKN035=

USA.gov is the U.S. government's official web portal to all federal, state and local government web resources and services.